Time;durP1;ratioP1;P1;durP2;ratioP2;P2;SDS_P1;SDS_P2;PMS_P1;PMS_P2;Temp;Humidity;BMP_temperature;BMP_pressure;BME280_temperature;BME280_humidity;BME280_pressure;Samples;Min_cycle;Max_cycle;Signal;HPM_P1;HPM_P2
2022/10/07 00:00:48;;;;;;;20.23;6.07;;;7.70;92.30;;;;;;5044402;28;20461;-51
2022/10/07 00:03:15;;;;;;;9.33;5.40;;;7.70;90.80;;;;;;5042473;28;20455;-50
2022/10/07 00:05:42;;;;;;;13.60;6.40;;;7.60;96.00;;;;;;5043466;28;20542;-51
2022/10/07 00:08:10;;;;;;;12.63;5.60;;;7.50;99.90;;;;;;5041891;28;20557;-52
2022/10/07 00:10:40;;;;;;;8.93;5.00;;;7.60;94.20;;;;;;5041620;28;20570;-50
2022/10/07 00:13:08;;;;;;;12.00;4.10;;;7.60;86.70;;;;;;5042713;28;20547;-52
2022/10/07 00:15:35;;;;;;;8.17;5.00;;;7.60;82.90;;;;;;5041223;28;20552;-50
2022/10/07 00:18:02;;;;;;;7.57;5.23;;;7.50;92.60;;;;;;5041641;28;20481;-52
2022/10/07 00:20:29;;;;;;;10.83;4.90;;;7.50;95.00;;;;;;5042934;28;20519;-51
2022/10/07 00:22:55;;;;;;;12.83;6.43;;;7.50;86.80;;;;;;5040755;28;20457;-50
2022/10/07 00:25:24;;;;;;;15.20;7.50;;;7.40;93.70;;;;;;5039887;28;20550;-50
2022/10/07 00:27:51;;;;;;;11.23;4.00;;;7.40;95.90;;;;;;5042867;28;20470;-50
2022/10/07 00:30:17;;;;;;;8.47;3.80;;;7.40;84.50;;;;;;5041351;28;20757;-50
2022/10/07 00:32:44;;;;;;;10.00;4.10;;;7.40;70.20;;;;;;5043055;28;20569;-50
2022/10/07 00:35:11;;;;;;;8.67;5.13;;;7.40;85.80;;;;;;5040927;28;20545;-51
2022/10/07 00:37:41;;;;;;;8.30;3.80;;;7.30;91.20;;;;;;5040059;28;20564;-51
2022/10/07 00:40:10;;;;;;;17.37;3.87;;;7.40;74.30;;;;;;5043860;28;20462;-51
2022/10/07 00:42:39;;;;;;;7.23;3.07;;;7.30;70.80;;;;;;5040198;28;20582;-50
2022/10/07 00:45:08;;;;;;;7.43;3.73;;;7.30;76.40;;;;;;5041835;28;20458;-51
2022/10/07 00:47:35;;;;;;;9.17;4.70;;;7.20;84.60;;;;;;5040453;28;20906;-50
2022/10/07 00:50:07;;;;;;;4.80;2.80;;;7.10;91.40;;;;;;5038712;28;20553;-51
2022/10/07 00:52:37;;;;;;;18.53;9.80;;;7.10;83.00;;;;;;5037889;28;20935;-50
2022/10/07 00:55:07;;;;;;;13.20;6.60;;;7.00;76.30;;;;;;5037523;28;20556;-50
2022/10/07 00:57:34;;;;;;;11.13;6.20;;;7.10;72.60;;;;;;5039002;28;20556;-50
2022/10/07 01:00:05;;;;;;;7.70;3.13;;;7.00;77.90;;;;;;5040313;28;20550;-50
2022/10/07 01:02:32;;;;;;;9.77;2.67;;;6.90;76.90;;;;;;5039522;28;20478;-51
2022/10/07 01:05:01;;;;;;;4.93;2.93;;;6.80;72.70;;;;;;5040200;28;20550;-50
2022/10/07 01:07:28;;;;;;;6.20;2.73;;;6.80;65.00;;;;;;5039705;28;20461;-50
2022/10/07 01:09:58;;;;;;;12.37;3.37;;;6.80;66.30;;;;;;5042616;28;21052;-50
2022/10/07 01:12:33;;;;;;;4.37;2.80;;;6.70;75.00;;;;;;5039107;28;20573;-50
2022/10/07 01:15:07;;;;;;;9.93;2.90;;;6.80;64.30;;;;;;5039542;28;20568;-51
2022/10/07 01:17:42;;;;;;;6.00;2.93;;;6.70;70.20;;;;;;5040861;28;20921;-51
2022/10/07 01:20:18;;;;;;;2.60;2.40;;;6.70;62.30;;;;;;5041261;28;20580;-51
2022/10/07 01:22:56;;;;;;;9.43;2.93;;;6.70;71.10;;;;;;5042303;28;20603;-50
2022/10/07 01:25:32;;;;;;;6.07;3.47;;;6.60;76.30;;;;;;5037517;28;20553;-51
2022/10/07 01:28:03;;;;;;;5.53;3.07;;;6.50;67.50;;;;;;5040013;28;20826;-50
2022/10/07 01:30:32;;;;;;;8.63;3.10;;;6.60;65.90;;;;;;5040164;28;20586;-50
2022/10/07 01:33:03;;;;;;;3.07;2.73;;;6.60;73.40;;;;;;5039989;28;20576;-51
2022/10/07 01:35:34;;;;;;;23.63;8.77;;;6.60;62.50;;;;;;5040038;28;20872;-50
2022/10/07 01:38:05;;;;;;;11.17;6.47;;;6.50;67.30;;;;;;5040096;28;20462;-51
2022/10/07 01:40:35;;;;;;;10.47;5.67;;;6.50;65.50;;;;;;5040259;28;20540;-50
2022/10/07 01:43:03;;;;;;;12.93;5.20;;;6.40;71.80;;;;;;5037194;28;20557;-50
2022/10/07 01:45:32;;;;;;;7.47;4.30;;;6.50;67.40;;;;;;5036130;28;20454;-50
2022/10/07 01:48:00;;;;;;;4.20;3.43;;;6.50;66.70;;;;;;5039818;28;20486;-50
2022/10/07 01:50:28;;;;;;;7.87;6.40;;;6.50;66.40;;;;;;5036872;28;20576;-50
2022/10/07 01:53:11;;;;;;;8.87;5.83;;;6.40;71.60;;;;;;5037375;28;20486;-50
2022/10/07 01:55:50;;;;;;;5.23;4.40;;;6.40;77.40;;;;;;5038761;28;20458;-50
2022/10/07 01:58:30;;;;;;;6.47;4.60;;;6.40;73.50;;;;;;5035719;28;20468;-50
2022/10/07 02:01:05;;;;;;;5.93;3.13;;;6.40;72.20;;;;;;5036798;28;20523;-50
2022/10/07 02:03:59;;;;;;;5.93;2.93;;;6.40;62.90;;;;;;5037400;28;20468;-50
2022/10/07 02:06:37;;;;;;;4.43;3.10;;;6.40;73.70;;;;;;5038673;28;20545;-49
2022/10/07 02:09:11;;;;;;;5.43;2.60;;;6.40;76.40;;;;;;5038480;28;20485;-50
2022/10/07 02:11:42;;;;;;;2.73;2.20;;;6.40;73.20;;;;;;5038502;28;21026;-49
2022/10/07 02:14:13;;;;;;;3.70;2.13;;;6.30;80.00;;;;;;5046785;28;20920;-49
2022/10/07 02:16:43;;;;;;;3.77;2.13;;;6.30;82.50;;;;;;5048173;28;20490;-48
2022/10/07 02:19:15;;;;;;;4.23;2.40;;;6.30;77.30;;;;;;5041994;28;20489;-49
2022/10/07 02:21:45;;;;;;;5.17;2.43;;;6.30;77.10;;;;;;5037949;28;21271;-49
2022/10/07 02:24:14;;;;;;;9.63;2.93;;;6.20;82.70;;;;;;5037953;28;20490;-49
2022/10/07 02:26:42;;;;;;;15.90;3.40;;;6.20;79.00;;;;;;5037765;28;20531;-48
2022/10/07 02:29:13;;;;;;;13.27;2.80;;;6.20;71.50;;;;;;5038616;28;20493;-50
2022/10/07 02:31:41;;;;;;;7.00;2.50;;;6.20;72.40;;;;;;5038054;28;20513;-50
2022/10/07 02:34:10;;;;;;;5.83;2.63;;;6.10;69.20;;;;;;5038136;28;20579;-49
2022/10/07 02:36:42;;;;;;;3.00;1.93;;;6.00;65.30;;;;;;5037685;28;20482;-50
2022/10/07 02:39:10;;;;;;;7.67;2.60;;;6.00;58.50;;;;;;5034696;28;20462;-49
2022/10/07 02:41:43;;;;;;;5.40;2.40;;;6.10;58.70;;;;;;5038127;28;21048;-49
2022/10/07 02:44:24;;;;;;;7.10;2.90;;;6.10;63.00;;;;;;5039856;28;20486;-49
2022/10/07 02:46:55;;;;;;;6.33;3.07;;;6.10;68.70;;;;;;5040250;28;20466;-48
2022/10/07 02:49:25;;;;;;;3.70;2.67;;;6.10;73.30;;;;;;5038686;28;20882;-49
2022/10/07 02:51:57;;;;;;;6.47;2.30;;;6.10;73.90;;;;;;5034668;28;20496;-49
2022/10/07 02:54:29;;;;;;;5.80;2.90;;;6.00;76.50;;;;;;5039195;28;20481;-49
2022/10/07 02:56:57;;;;;;;6.00;2.50;;;6.00;70.60;;;;;;5038056;28;20535;-49
2022/10/07 02:59:26;;;;;;;4.33;2.40;;;6.00;71.30;;;;;;5037316;28;20500;-49
2022/10/07 03:01:55;;;;;;;6.10;2.77;;;6.00;69.70;;;;;;5037532;28;20513;-48
2022/10/07 03:04:22;;;;;;;12.63;3.53;;;6.00;64.30;;;;;;5038473;28;20549;-48
2022/10/07 03:06:49;;;;;;;8.80;2.57;;;6.00;68.60;;;;;;5037291;28;20485;-48
2022/10/07 03:09:16;;;;;;;2.63;2.40;;;6.00;69.20;;;;;;5038067;28;20457;-48
2022/10/07 03:11:42;;;;;;;3.63;3.17;;;5.90;68.30;;;;;;5041787;28;21089;-49
2022/10/07 03:14:09;;;;;;;6.90;3.10;;;5.90;66.00;;;;;;5043046;28;20540;-48
2022/10/07 03:16:37;;;;;;;5.73;3.20;;;6.00;60.80;;;;;;5040585;28;20958;-49
2022/10/07 03:19:03;;;;;;;3.83;2.70;;;6.00;52.60;;;;;;5042656;28;20535;-48
2022/10/07 03:21:32;;;;;;;5.60;3.03;;;6.10;61.30;;;;;;5042285;28;20473;-49
2022/10/07 03:24:03;;;;;;;8.10;3.20;;;6.00;62.20;;;;;;5040469;28;20472;-48
2022/10/07 03:26:31;;;;;;;3.53;2.70;;;6.00;53.90;;;;;;5039992;28;20555;-49
2022/10/07 03:28:59;;;;;;;8.93;2.90;;;6.00;64.70;;;;;;5043338;28;20569;-47
2022/10/07 03:31:26;;;;;;;6.77;3.70;;;6.00;66.30;;;;;;5039775;28;20486;-47
2022/10/07 03:33:55;;;;;;;5.33;3.23;;;6.10;58.40;;;;;;5043173;28;20496;-49
2022/10/07 03:36:22;;;;;;;4.90;3.10;;;6.10;62.10;;;;;;5040380;28;20497;-48
2022/10/07 03:38:49;;;;;;;5.83;3.20;;;6.00;72.70;;;;;;5040224;28;20454;-48
2022/10/07 03:41:16;;;;;;;3.53;2.73;;;6.10;67.40;;;;;;5040264;28;20878;-48
2022/10/07 03:43:42;;;;;;;5.80;3.37;;;6.10;63.40;;;;;;5039112;28;20487;-49
2022/10/07 03:46:09;;;;;;;8.13;3.33;;;6.10;62.30;;;;;;5041416;28;20493;-48
2022/10/07 03:48:35;;;;;;;3.80;3.00;;;6.10;69.40;;;;;;5041898;28;20540;-49
2022/10/07 03:51:04;;;;;;;13.13;3.50;;;6.10;74.30;;;;;;5042000;28;20497;-49
2022/10/07 03:53:30;;;;;;;6.60;3.00;;;6.20;58.50;;;;;;5042219;28;20587;-47
2022/10/07 03:55:57;;;;;;;3.17;2.90;;;6.10;72.80;;;;;;5043051;28;20863;-48
2022/10/07 03:58:24;;;;;;;6.10;3.30;;;6.10;78.10;;;;;;5042573;28;20543;-48
2022/10/07 04:00:51;;;;;;;7.23;3.03;;;6.10;76.90;;;;;;5039726;28;20549;-47
2022/10/07 04:03:18;;;;;;;5.93;3.00;;;6.00;75.10;;;;;;5054962;22;20544;-49
2022/10/07 04:05:54;;;;;;;7.27;3.03;;;6.00;76.40;;;;;;5021657;28;20455;-49
2022/10/07 04:08:22;;;;;;;8.13;3.60;;;6.00;75.30;;;;;;5022038;28;21045;-50
2022/10/07 04:10:49;;;;;;;6.10;4.13;;;6.00;77.40;;;;;;5022581;28;20459;-49
2022/10/07 04:13:15;;;;;;;10.43;3.10;;;5.90;79.30;;;;;;5023965;28;20544;-49
2022/10/07 04:15:42;;;;;;;9.00;3.50;;;5.90;75.20;;;;;;5020191;28;20487;-50
2022/10/07 04:18:10;;;;;;;6.83;3.27;;;6.00;73.20;;;;;;5027560;28;20490;-49
2022/10/07 04:20:38;;;;;;;5.80;3.13;;;5.90;75.50;;;;;;5025447;28;20462;-49
2022/10/07 04:23:04;;;;;;;7.60;3.27;;;5.90;79.20;;;;;;5029004;28;20534;-49
2022/10/07 04:25:36;;;;;;;6.13;3.50;;;5.90;76.30;;;;;;5027407;28;20770;-49
2022/10/07 04:28:05;;;;;;;4.10;3.70;;;5.90;76.50;;;;;;5028123;28;20462;-49
2022/10/07 04:30:33;;;;;;;3.97;3.23;;;5.90;81.10;;;;;;5027514;28;20502;-49
2022/10/07 04:33:01;;;;;;;5.67;3.10;;;6.00;79.50;;;;;;5028833;28;20482;-49
2022/10/07 04:35:28;;;;;;;9.73;3.60;;;6.00;84.60;;;;;;5029964;28;20549;-49
2022/10/07 04:37:54;;;;;;;6.13;3.10;;;5.90;88.70;;;;;;5026500;28;20502;-49
2022/10/07 04:40:23;;;;;;;3.70;2.40;;;6.00;85.10;;;;;;5029805;28;20517;-49
2022/10/07 04:45:39;;;;;;;6.60;2.90;;;6.00;80.50;;;;;;5023390;28;20474;-49
2022/10/07 04:48:06;;;;;;;5.13;3.00;;;6.00;77.70;;;;;;5029389;28;20466;-48
2022/10/07 04:50:37;;;;;;;4.43;3.23;;;6.00;78.50;;;;;;5024171;28;20604;-48
2022/10/07 04:53:04;;;;;;;8.60;3.40;;;6.10;74.70;;;;;;5026250;28;20489;-48
2022/10/07 04:55:36;;;;;;;6.50;4.07;;;6.10;74.50;;;;;;5026167;28;20491;-48
2022/10/07 04:58:04;;;;;;;13.13;6.63;;;6.20;72.30;;;;;;5020112;28;20463;-48
2022/10/07 05:00:31;;;;;;;7.60;5.30;;;6.20;73.20;;;;;;5032812;28;20485;-48
2022/10/07 05:02:57;;;;;;;4.80;4.00;;;6.30;66.00;;;;;;5017825;28;20505;-48
2022/10/07 05:05:24;;;;;;;10.07;3.80;;;6.30;66.10;;;;;;5027689;28;20522;-47
2022/10/07 05:07:51;;;;;;;6.87;4.07;;;6.30;64.40;;;;;;5026875;28;20462;-48
2022/10/07 05:10:19;;;;;;;4.07;3.67;;;6.40;63.30;;;;;;5024145;28;20505;-48
2022/10/07 05:12:46;;;;;;;3.90;3.33;;;6.50;62.00;;;;;;5027224;28;20506;-48
2022/10/07 05:15:14;;;;;;;10.73;3.80;;;6.50;64.90;;;;;;5029361;28;20587;-48
2022/10/07 05:17:41;;;;;;;5.20;3.70;;;6.60;67.90;;;;;;5029842;28;20467;-49
2022/10/07 05:20:08;;;;;;;8.87;3.90;;;6.70;64.50;;;;;;5025410;28;21029;-49
2022/10/07 05:22:35;;;;;;;4.43;3.27;;;6.70;65.30;;;;;;5023096;28;20513;-48
2022/10/07 05:25:02;;;;;;;7.27;4.27;;;6.80;62.00;;;;;;5028127;28;20462;-48
2022/10/07 05:27:28;;;;;;;11.67;4.20;;;6.80;62.30;;;;;;5031309;28;20501;-48
2022/10/07 05:29:55;;;;;;;9.83;4.40;;;7.00;59.40;;;;;;5024108;28;20486;-48
2022/10/07 05:32:24;;;;;;;7.87;4.57;;;7.10;53.80;;;;;;5025590;28;20494;-48
2022/10/07 05:34:51;;;;;;;6.67;4.23;;;7.20;52.60;;;;;;5030101;28;20569;-49
2022/10/07 05:37:18;;;;;;;12.27;5.20;;;7.30;53.40;;;;;;5032814;28;20545;-48
2022/10/07 05:39:45;;;;;;;11.27;4.30;;;7.30;61.40;;;;;;5031940;28;20567;-48
2022/10/07 05:42:12;;;;;;;6.90;4.47;;;7.30;66.70;;;;;;5029084;28;21006;-49
2022/10/07 05:44:39;;;;;;;8.50;4.57;;;7.40;68.00;;;;;;5026577;28;20975;-48
2022/10/07 05:47:05;;;;;;;9.07;4.67;;;7.40;69.50;;;;;;5031427;28;20463;-48
2022/10/07 05:49:34;;;;;;;7.77;4.43;;;7.40;73.00;;;;;;5024859;28;20510;-48
2022/10/07 05:52:01;;;;;;;9.00;5.40;;;7.40;72.90;;;;;;5025627;28;20521;-48
2022/10/07 05:54:28;;;;;;;15.93;5.30;;;7.40;71.30;;;;;;5029268;28;20541;-48
2022/10/07 05:56:54;;;;;;;18.97;4.77;;;7.40;73.10;;;;;;5029718;28;21021;-48
2022/10/07 05:59:21;;;;;;;9.13;4.80;;;7.40;75.70;;;;;;5029240;28;20491;-49
2022/10/07 06:01:47;;;;;;;14.87;5.70;;;7.30;75.00;;;;;;5023320;28;20987;-48
2022/10/07 06:04:14;;;;;;;7.93;4.30;;;7.30;74.90;;;;;;5029643;28;20507;-48
2022/10/07 06:06:42;;;;;;;10.90;6.67;;;7.30;73.30;;;;;;5030855;28;20498;-48
2022/10/07 06:14:33;;;;;;;11.27;5.57;;;7.20;67.00;;;;;;5029941;28;20480;-48
2022/10/07 06:17:00;;;;;;;6.43;5.43;;;7.30;68.10;;;;;;5027762;28;20513;-49
2022/10/07 06:19:26;;;;;;;14.60;5.50;;;7.30;67.60;;;;;;5030393;28;20470;-48
2022/10/07 06:21:54;;;;;;;10.30;4.60;;;7.30;66.60;;;;;;5026972;28;20484;-48
2022/10/07 06:24:21;;;;;;;10.17;5.20;;;7.30;61.40;;;;;;5031310;28;20256;-47
2022/10/07 06:26:48;;;;;;;17.70;5.67;;;7.40;61.90;;;;;;5028410;28;20491;-49
2022/10/07 06:29:15;;;;;;;12.20;4.70;;;7.50;63.50;;;;;;5031878;28;20439;-48
2022/10/07 06:31:41;;;;;;;6.40;4.63;;;7.60;59.80;;;;;;5027270;28;20465;-47
2022/10/07 06:34:08;;;;;;;7.20;4.80;;;7.60;63.10;;;;;;5031103;28;20522;-49
2022/10/07 06:36:34;;;;;;;14.10;6.17;;;7.80;68.40;;;;;;5031818;28;20898;-48
2022/10/07 06:39:02;;;;;;;14.23;5.33;;;7.80;70.90;;;;;;5031253;28;20826;-48
2022/10/07 06:41:29;;;;;;;11.73;6.23;;;7.90;68.80;;;;;;5028383;28;20514;-48
2022/10/07 06:43:56;;;;;;;8.87;6.10;;;8.00;70.50;;;;;;5014718;28;20517;-48
2022/10/07 06:46:23;;;;;;;17.37;8.50;;;8.10;73.40;;;;;;5018534;28;20460;-48
2022/10/07 06:48:50;;;;;;;22.40;11.37;;;8.30;75.90;;;;;;5024546;28;20496;-48
2022/10/07 06:51:18;;;;;;;15.37;10.00;;;8.40;87.50;;;;;;5026715;28;20498;-47
2022/10/07 06:53:45;;;;;;;20.63;12.57;;;8.50;89.20;;;;;;5029587;28;20864;-48
2022/10/07 06:56:14;;;;;;;22.10;12.10;;;8.50;97.20;;;;;;5030539;28;20506;-49
2022/10/07 06:58:41;;;;;;;19.07;12.50;;;8.60;99.90;;;;;;5026237;28;20467;-48
2022/10/07 07:01:07;;;;;;;20.37;13.27;;;8.70;99.90;;;;;;5029507;28;20979;-48
2022/10/07 07:03:35;;;;;;;23.40;11.80;;;8.80;99.90;;;;;;5028179;28;20914;-48
2022/10/07 07:06:01;;;;;;;24.30;11.63;;;8.90;99.90;;;;;;5024663;28;21027;-48
2022/10/07 07:08:30;;;;;;;18.10;10.97;;;9.00;99.90;;;;;;5028977;28;20443;-48
2022/10/07 07:11:02;;;;;;;19.83;9.50;;;9.10;99.90;;;;;;5020885;28;20474;-48
2022/10/07 07:13:30;;;;;;;9.93;7.60;;;9.20;99.90;;;;;;5022766;28;20475;-48
2022/10/07 07:15:58;;;;;;;18.17;9.73;;;9.30;99.90;;;;;;5028565;28;20522;-48
2022/10/07 07:18:25;;;;;;;26.30;8.40;;;9.40;99.90;;;;;;5025896;28;20525;-48
2022/10/07 07:20:52;;;;;;;30.63;9.70;;;9.50;99.90;;;;;;5020884;28;20486;-47
2022/10/07 07:23:19;;;;;;;20.73;9.47;;;9.60;99.90;;;;;;5027699;28;20500;-47
2022/10/07 07:25:46;;;;;;;7.90;5.93;;;9.70;99.90;;;;;;5027890;28;20490;-48
2022/10/07 07:28:14;;;;;;;13.37;6.80;;;9.80;99.90;;;;;;5021579;28;20518;-48
2022/10/07 07:30:42;;;;;;;13.20;7.50;;;9.90;99.90;;;;;;5023821;28;20490;-48
2022/10/07 07:33:09;;;;;;;14.33;6.73;;;10.10;99.90;;;;;;5022463;28;20502;-48
2022/10/07 07:35:40;;;;;;;15.57;7.47;;;10.20;99.90;;;;;;5023173;28;21082;-48
2022/10/07 07:38:07;;;;;;;19.00;8.43;;;10.30;99.90;;;;;;5018033;28;20462;-48
2022/10/07 07:40:36;;;;;;;13.27;7.63;;;10.40;99.90;;;;;;5026389;28;20542;-47
2022/10/07 07:43:03;;;;;;;16.83;8.77;;;10.50;99.90;;;;;;5025598;28;20501;-48
2022/10/07 07:45:31;;;;;;;19.73;8.17;;;10.60;99.90;;;;;;5018995;28;20487;-48
2022/10/07 07:47:59;;;;;;;15.13;8.80;;;10.80;99.90;;;;;;5019238;28;20513;-49
2022/10/07 07:50:26;;;;;;;19.80;8.90;;;10.90;99.90;;;;;;5024859;28;20533;-49
2022/10/07 07:52:53;;;;;;;13.87;8.53;;;11.00;99.90;;;;;;5025313;28;20479;-49
2022/10/07 07:55:21;;;;;;;17.50;8.47;;;11.20;99.90;;;;;;5030483;28;20518;-58
2022/10/07 07:57:47;;;;;;;14.30;7.17;;;11.20;99.90;;;;;;5031675;28;20493;-51
2022/10/07 08:00:16;;;;;;;14.13;6.63;;;11.40;99.90;;;;;;5032729;28;20838;-50
2022/10/07 08:02:42;;;;;;;12.07;6.23;;;11.50;99.90;;;;;;5034084;28;20506;-50
2022/10/07 08:05:10;;;;;;;10.53;5.10;;;11.60;99.90;;;;;;5027480;28;20844;-51
2022/10/07 08:07:37;;;;;;;6.73;5.10;;;11.70;99.90;;;;;;5028561;28;20530;-51
2022/10/07 08:10:04;;;;;;;8.57;5.17;;;11.70;99.90;;;;;;5034303;28;20520;-51
2022/10/07 08:12:31;;;;;;;13.90;4.30;;;11.80;99.90;;;;;;5034388;28;20516;-50
2022/10/07 08:14:58;;;;;;;16.57;5.90;;;12.00;99.90;;;;;;5032459;28;21015;-49
2022/10/07 08:17:25;;;;;;;12.50;5.00;;;12.10;99.90;;;;;;5034271;28;20474;-50
2022/10/07 08:19:53;;;;;;;17.73;4.83;;;12.10;20.70;;;;;;5034696;28;20482;-50
2022/10/07 08:22:21;;;;;;;6.13;4.60;;;12.20;24.90;;;;;;5026935;28;20467;-50
2022/10/07 08:24:48;;;;;;;17.43;5.17;;;12.30;25.00;;;;;;5028538;28;20809;-50
2022/10/07 08:27:14;;;;;;;7.17;4.97;;;12.40;22.40;;;;;;5032165;28;20972;-50
2022/10/07 08:29:41;;;;;;;12.33;5.03;;;12.50;22.60;;;;;;5027398;28;20482;-50
2022/10/07 08:32:07;;;;;;;12.67;4.40;;;12.60;24.00;;;;;;5029401;28;20486;-50
2022/10/07 08:34:35;;;;;;;11.80;3.93;;;12.70;25.80;;;;;;5029718;28;20514;-52
2022/10/07 08:37:01;;;;;;;9.83;3.93;;;12.80;27.70;;;;;;5029709;28;20462;-50
2022/10/07 08:39:30;;;;;;;8.17;4.00;;;13.00;44.00;;;;;;5026474;28;20487;-50
2022/10/07 08:42:07;;;;;;;10.50;4.83;;;13.10;41.10;;;;;;5030948;28;20466;-51
2022/10/07 08:44:38;;;;;;;8.73;4.03;;;13.40;50.00;;;;;;5025552;28;20458;-50
2022/10/07 08:47:15;;;;;;;12.80;4.23;;;13.80;56.00;;;;;;5025948;28;21268;-50
2022/10/07 08:49:53;;;;;;;14.43;4.03;;;13.90;55.90;;;;;;5026769;28;20434;-50
2022/10/07 08:52:32;;;;;;;8.20;3.60;;;14.30;79.90;;;;;;5027510;28;20466;-50
2022/10/07 08:55:01;;;;;;;5.33;3.10;;;14.30;85.30;;;;;;5031137;28;20483;-50
2022/10/07 08:57:46;;;;;;;11.83;3.50;;;14.30;88.50;;;;;;5030788;28;20501;-50
2022/10/07 09:00:18;;;;;;;9.00;3.57;;;14.40;89.30;;;;;;5029118;28;20975;-50
2022/10/07 09:03:06;;;;;;;14.93;3.53;;;14.50;89.20;;;;;;5029026;28;20466;-50
2022/10/07 09:05:37;;;;;;;7.87;3.20;;;14.60;96.30;;;;;;5023321;28;20486;-50
2022/10/07 09:08:10;;;;;;;4.80;3.13;;;14.70;93.30;;;;;;5022958;28;20482;-50
2022/10/07 09:10:42;;;;;;;13.83;3.37;;;14.70;98.20;;;;;;5027616;28;20497;-50
2022/10/07 09:13:13;;;;;;;5.13;2.90;;;14.80;94.50;;;;;;5026118;28;20486;-49
2022/10/07 09:15:45;;;;;;;6.03;2.80;;;14.90;99.50;;;;;;5030834;28;20521;-50
2022/10/07 09:18:19;;;;;;;6.73;3.03;;;14.90;99.90;;;;;;5028619;28;20492;-50
2022/10/07 09:20:52;;;;;;;7.87;3.30;;;15.00;99.90;;;;;;5031084;28;20517;-49
2022/10/07 09:23:22;;;;;;;8.03;3.40;;;15.00;99.90;;;;;;5024805;28;20481;-50
2022/10/07 09:25:51;;;;;;;8.43;3.03;;;15.20;99.90;;;;;;5026959;28;20495;-49
2022/10/07 09:28:21;;;;;;;7.87;3.07;;;15.20;99.90;;;;;;5027994;28;20474;-50
2022/10/07 09:30:47;;;;;;;5.50;2.13;;;15.30;99.90;;;;;;5027870;28;20487;-50
2022/10/07 09:33:16;;;;;;;7.53;2.60;;;15.50;99.90;;;;;;5030319;28;20557;-50
2022/10/07 09:35:52;;;;;;;6.47;2.77;;;15.60;99.90;;;;;;5020066;28;21082;-50
2022/10/07 09:38:34;;;;;;;7.70;2.50;;;15.70;99.90;;;;;;5026618;28;20455;-51
2022/10/07 09:41:15;;;;;;;6.83;3.03;;;15.70;99.90;;;;;;5023488;28;20465;-50
2022/10/07 09:43:56;;;;;;;13.90;3.20;;;15.90;99.90;;;;;;5028454;28;20479;-51
2022/10/07 09:46:35;;;;;;;8.43;2.77;;;16.20;99.90;;;;;;5025734;28;20494;-50
2022/10/07 09:49:04;;;;;;;8.20;2.30;;;16.20;99.90;;;;;;5022054;28;20482;-50
2022/10/07 09:51:31;;;;;;;6.70;2.53;;;16.40;99.90;;;;;;5030074;28;20454;-53
2022/10/07 09:54:01;;;;;;;8.97;3.17;;;16.30;99.90;;;;;;5029356;28;20482;-51
2022/10/07 09:56:37;;;;;;;8.63;3.00;;;16.30;99.90;;;;;;5030241;28;20552;-50
2022/10/07 09:59:21;;;;;;;8.37;2.53;;;16.60;99.90;;;;;;5030829;28;20442;-50
2022/10/07 10:01:53;;;;;;;9.33;2.40;;;16.80;99.90;;;;;;5026076;28;20455;-50
2022/10/07 10:04:23;;;;;;;5.13;2.60;;;16.70;99.90;;;;;;5048134;22;20529;-48
2022/10/07 10:06:51;;;;;;;3.97;2.20;;;16.60;99.90;;;;;;5045954;28;20478;-48
2022/10/07 10:09:22;;;;;;;3.83;1.80;;;16.60;99.90;;;;;;5046312;28;20504;-49
2022/10/07 10:12:06;;;;;;;12.40;2.50;;;16.60;99.90;;;;;;5049495;28;20458;-51
2022/10/07 10:14:43;;;;;;;9.40;1.80;;;16.50;99.90;;;;;;5045372;28;20525;-50
2022/10/07 10:17:26;;;;;;;4.50;1.63;;;16.60;99.90;;;;;;5048324;28;20481;-51
2022/10/07 10:19:53;;;;;;;5.50;2.13;;;16.50;99.90;;;;;;5050572;28;22279;-51
2022/10/07 10:22:28;;;;;;;5.33;2.20;;;16.50;99.90;;;;;;5048201;28;20556;-50
2022/10/07 10:27:51;;;;;;;4.80;1.63;;;16.60;99.90;;;;;;5051113;28;20498;-51
2022/10/07 10:30:21;;;;;;;8.70;2.50;;;16.60;99.90;;;;;;5051830;28;20442;-50
2022/10/07 10:33:09;;;;;;;10.43;2.30;;;16.60;99.90;;;;;;5049755;28;20500;-50
2022/10/07 10:35:42;;;;;;;7.17;1.77;;;16.60;99.90;;;;;;5048253;28;21060;-50
2022/10/07 10:38:32;;;;;;;12.47;3.30;;;16.60;99.90;;;;;;5050977;28;20865;-51
2022/10/07 10:41:09;;;;;;;3.33;2.03;;;16.60;99.90;;;;;;5046221;28;20498;-52
2022/10/07 10:43:53;;;;;;;12.33;2.03;;;16.70;99.90;;;;;;5043013;28;20506;-50
2022/10/07 10:46:34;;;;;;;6.60;1.90;;;16.60;99.90;;;;;;5044609;28;20482;-49
2022/10/07 10:49:09;;;;;;;14.47;2.60;;;16.60;99.90;;;;;;5041976;28;20964;-48
2022/10/07 10:51:50;;;;;;;4.17;1.40;;;16.60;99.90;;;;;;5045780;28;20462;-48
2022/10/07 10:54:25;;;;;;;3.30;1.80;;;16.70;99.90;;;;;;5042148;28;20482;-48
2022/10/07 10:56:58;;;;;;;3.90;2.03;;;16.70;99.90;;;;;;5050690;28;20568;-48
2022/10/07 10:59:45;;;;;;;6.37;1.87;;;16.70;99.90;;;;;;5049228;28;20462;-49
2022/10/07 11:02:51;;;;;;;7.70;2.50;;;16.70;99.90;;;;;;5041353;28;20480;-48
2022/10/07 11:05:23;;;;;;;8.30;2.33;;;16.80;99.90;;;;;;5040955;28;20465;-49
2022/10/07 11:07:54;;;;;;;5.60;2.40;;;16.70;99.90;;;;;;5049945;28;20499;-49
2022/10/07 11:10:23;;;;;;;7.17;2.03;;;16.70;99.90;;;;;;5044547;28;20485;-48
2022/10/07 11:12:55;;;;;;;4.50;1.83;;;16.80;99.90;;;;;;5050732;28;20462;-47
2022/10/07 11:15:27;;;;;;;3.23;1.60;;;16.80;99.90;;;;;;5050540;28;20454;-50
2022/10/07 11:18:00;;;;;;;8.07;2.47;;;16.70;99.90;;;;;;5048741;28;20500;-49
2022/10/07 11:20:31;;;;;;;11.97;1.97;;;16.70;99.90;;;;;;5051578;28;20470;-49
2022/10/07 11:23:17;;;;;;;3.80;1.60;;;16.60;99.90;;;;;;5047617;28;21018;-49
2022/10/07 11:25:50;;;;;;;3.83;1.40;;;16.70;99.90;;;;;;5049351;28;20496;-48
2022/10/07 11:28:20;;;;;;;4.63;2.17;;;16.80;99.90;;;;;;5051253;28;20450;-49
2022/10/07 11:30:56;;;;;;;4.43;1.50;;;16.80;99.90;;;;;;5059367;28;20799;-50
2022/10/07 11:33:31;;;;;;;6.73;1.97;;;16.90;99.90;;;;;;5053243;28;21009;-48
2022/10/07 11:36:03;;;;;;;3.43;2.00;;;16.90;99.90;;;;;;5054205;28;20481;-49
2022/10/07 11:38:33;;;;;;;5.43;1.67;;;17.00;99.90;;;;;;5049309;28;20498;-49
2022/10/07 11:41:06;;;;;;;2.90;1.70;;;17.00;99.90;;;;;;5052022;28;20513;-49
2022/10/07 11:43:37;;;;;;;3.63;1.83;;;17.00;99.90;;;;;;5057876;28;20516;-50
2022/10/07 11:46:10;;;;;;;1.90;1.60;;;17.00;99.90;;;;;;5056671;28;21011;-50
2022/10/07 11:48:40;;;;;;;7.87;1.97;;;17.00;99.90;;;;;;5062681;28;20527;-49
2022/10/07 11:51:09;;;;;;;4.47;1.60;;;17.00;99.90;;;;;;5053686;28;20484;-49
2022/10/07 11:53:38;;;;;;;10.83;1.90;;;17.00;99.90;;;;;;5046953;28;20892;-49
2022/10/07 11:56:13;;;;;;;9.50;2.17;;;17.10;99.90;;;;;;5055248;28;20556;-50
2022/10/07 11:58:39;;;;;;;4.77;1.83;;;17.10;99.90;;;;;;5060705;28;20488;-49
2022/10/07 12:01:46;;;;;;;5.53;1.70;;;17.10;99.90;;;;;;5049458;28;20515;-50
2022/10/07 12:04:37;;;;;;;16.33;1.87;;;17.00;99.90;;;;;;5039835;28;21033;-51
2022/10/07 12:07:35;;;;;;;8.50;2.23;;;17.10;99.90;;;;;;5051851;28;20540;-50
2022/10/07 12:10:24;;;;;;;7.00;1.90;;;17.10;99.90;;;;;;5046794;28;20535;-50
2022/10/07 12:12:53;;;;;;;3.00;1.57;;;17.10;99.90;;;;;;5051182;28;20445;-50
2022/10/07 12:15:26;;;;;;;8.70;2.43;;;17.20;99.90;;;;;;5048516;28;20636;-51
2022/10/07 12:17:54;;;;;;;6.37;2.40;;;17.30;99.90;;;;;;5052749;28;20502;-50
2022/10/07 12:20:46;;;;;;;5.43;1.90;;;17.40;99.90;;;;;;5049574;28;20511;-49
2022/10/07 12:23:39;;;;;;;7.20;1.73;;;17.40;99.90;;;;;;5044890;28;20481;-49
2022/10/07 12:26:48;;;;;;;6.43;2.13;;;17.50;99.90;;;;;;5046271;28;20933;-50
2022/10/07 12:29:33;;;;;;;4.20;1.63;;;17.60;99.90;;;;;;5041308;28;20450;-50
2022/10/07 12:32:00;;;;;;;8.30;1.40;;;17.60;99.90;;;;;;5052803;28;20519;-50
2022/10/07 12:34:36;;;;;;;3.20;1.70;;;17.60;99.90;;;;;;5051350;28;20569;-51
2022/10/07 12:37:42;;;;;;;5.73;1.70;;;17.70;99.90;;;;;;5053986;28;20513;-50
2022/10/07 12:40:17;;;;;;;4.90;1.87;;;17.80;99.90;;;;;;5045627;28;20458;-50
2022/10/07 12:42:53;;;;;;;5.13;2.20;;;17.70;99.90;;;;;;5053673;28;20445;-49
2022/10/07 12:45:22;;;;;;;2.40;1.57;;;17.70;99.90;;;;;;5056836;28;20454;-47
2022/10/07 12:47:51;;;;;;;3.43;1.73;;;17.60;99.90;;;;;;5053200;28;20544;-47
2022/10/07 12:50:20;;;;;;;6.67;1.53;;;17.70;99.90;;;;;;5054510;28;20500;-47
2022/10/07 12:52:51;;;;;;;9.77;2.47;;;17.80;99.90;;;;;;5055378;28;20489;-47
2022/10/07 12:55:24;;;;;;;3.67;1.50;;;17.90;99.90;;;;;;5052305;28;20453;-47
2022/10/07 12:57:53;;;;;;;6.93;1.87;;;18.10;99.90;;;;;;5053569;28;20481;-47
2022/10/07 13:00:23;;;;;;;4.80;1.73;;;18.30;99.90;;;;;;5058997;28;20487;-47
2022/10/07 13:03:17;;;;;;;5.13;1.63;;;18.20;99.90;;;;;;5055700;28;20441;-47
2022/10/07 13:06:37;;;;;;;6.30;2.63;;;18.10;99.90;;;;;;5052671;28;20943;-47
2022/10/07 13:09:33;;;;;;;6.77;1.60;;;18.20;99.90;;;;;;5053429;28;20449;-48
2022/10/07 13:12:29;;;;;;;13.73;2.17;;;18.40;99.90;;;;;;5052179;28;20540;-47
2022/10/07 13:15:09;;;;;;;12.27;1.40;;;18.50;99.90;;;;;;5057420;28;20466;-48
2022/10/07 13:17:44;;;;;;;3.57;1.53;;;18.60;99.90;;;;;;5056555;28;20538;-49
2022/10/07 13:20:28;;;;;;;4.20;2.00;;;18.60;99.90;;;;;;5055538;28;20449;-46